Time;durP1;ratioP1;P1;durP2;ratioP2;P2;SDS_P1;SDS_P2;PMS_P1;PMS_P2;Temp;Humidity;BMP_temperature;BMP_pressure;BME280_temperature;BME280_humidity;BME280_pressure;Samples;Min_cycle;Max_cycle;Signal;HPM_P1;HPM_P2
2021/03/16 00:01:19;;;;;;;4.00;2.45;;;;;;;0.93;94.66;93366.78;5108406;27;20187;-72
2021/03/16 00:03:49;;;;;;;3.35;1.70;;;;;;;1.02;94.57;93387.06;5108952;27;20447;-72
2021/03/16 00:06:38;;;;;;;2.35;1.73;;;;;;;1.01;94.61;93382.91;5096123;28;20047;-71
2021/03/16 00:09:05;;;;;;;2.50;1.90;;;;;;;1.02;94.88;93394.75;5107647;28;20063;-72
2021/03/16 00:11:31;;;;;;;2.53;1.80;;;;;;;1.03;94.93;93391.22;5107348;28;20035;-71
2021/03/16 00:13:57;;;;;;;3.95;1.90;;;;;;;0.92;95.30;93385.75;5107770;27;20412;-71
2021/03/16 00:16:26;;;;;;;3.50;2.15;;;;;;;0.86;95.08;93368.59;5106617;28;20422;-72
2021/03/16 00:18:53;;;;;;;4.93;1.90;;;;;;;1.03;95.23;93391.22;5104387;28;20466;-71
2021/03/16 00:21:19;;;;;;;2.50;1.60;;;;;;;1.05;95.43;93389.22;5106520;28;20074;-71
2021/03/16 00:23:46;;;;;;;2.30;1.75;;;;;;;1.05;94.96;93379.75;5107257;27;20059;-71
2021/03/16 00:26:12;;;;;;;3.58;2.25;;;;;;;1.00;94.76;93376.22;5088185;28;20055;-71
2021/03/16 00:28:39;;;;;;;2.78;1.60;;;;;;;0.99;94.95;93384.91;5104787;28;20036;-71
2021/03/16 00:31:06;;;;;;;3.88;2.03;;;;;;;1.06;95.10;93385.66;5108143;27;20097;-72
2021/03/16 00:33:33;;;;;;;2.80;1.92;;;;;;;0.90;95.39;93372.34;5088508;28;20053;-72
2021/03/16 00:36:00;;;;;;;2.47;1.90;;;;;;;0.95;95.08;93379.41;5106590;28;20043;-71
2021/03/16 00:38:27;;;;;;;2.55;2.05;;;;;;;0.97;95.16;93379.97;5104645;27;20040;-71
2021/03/16 00:45:55;;;;;;;2.47;1.75;;;;;;;0.84;95.01;93373.16;5106425;27;20580;-71
2021/03/16 00:48:22;;;;;;;2.55;2.28;;;;;;;1.00;95.19;93381.34;5102112;27;20056;-72
2021/03/16 00:50:54;;;;;;;2.92;2.25;;;;;;;0.97;95.33;93384.31;5118370;27;20138;-71
2021/03/16 00:53:21;;;;;;;2.03;1.63;;;;;;;1.01;95.09;93382.91;5123652;27;20432;-71
2021/03/16 00:55:52;;;;;;;3.20;2.28;;;;;;;0.78;95.52;93343.25;5103882;27;20047;-72
2021/03/16 00:58:27;;;;;;;2.92;1.85;;;;;;;1.07;95.06;93374.41;5119528;27;20043;-71
2021/03/16 01:00:55;;;;;;;2.80;2.30;;;;;;;1.07;94.96;93376.97;5122825;27;20079;-71
2021/03/16 01:03:22;;;;;;;2.40;1.70;;;;;;;1.01;95.00;93350.38;5124724;27;20032;-71
2021/03/16 01:05:51;;;;;;;1.83;1.48;;;;;;;1.15;94.40;93369.00;5122257;27;20546;-71
2021/03/16 01:08:18;;;;;;;2.17;1.58;;;;;;;1.10;94.38;93374.78;5119991;27;20043;-71
2021/03/16 01:10:47;;;;;;;2.65;1.98;;;;;;;1.01;94.90;93367.53;5120455;27;20058;-71
2021/03/16 01:13:13;;;;;;;2.03;1.63;;;;;;;1.01;94.86;93357.28;5104748;27;20119;-70
2021/03/16 01:15:40;;;;;;;2.33;1.98;;;;;;;1.13;94.58;93376.13;5119799;27;20047;-70
2021/03/16 01:18:06;;;;;;;2.50;1.63;;;;;;;1.11;94.98;93373.00;5121752;27;20110;-70
2021/03/16 01:20:34;;;;;;;1.73;1.30;;;;;;;1.06;94.78;93365.13;5121860;27;20044;-71
2021/03/16 01:23:02;;;;;;;1.90;1.42;;;;;;;1.08;94.88;93368.28;5119422;27;20130;-71
2021/03/16 01:25:29;;;;;;;2.03;1.70;;;;;;;1.03;95.25;93370.69;5120990;27;20101;-70
2021/03/16 01:27:55;;;;;;;2.30;1.67;;;;;;;1.10;95.70;93363.75;5121728;27;20043;-71
2021/03/16 01:30:22;;;;;;;2.33;1.88;;;;;;;1.01;95.58;93357.28;5119769;27;20051;-71
2021/03/16 01:32:52;;;;;;;2.35;1.45;;;;;;;0.95;96.62;93353.75;5122400;27;20043;-71
2021/03/16 01:35:19;;;;;;;2.65;2.03;;;;;;;0.99;96.87;93364.41;5120753;27;20146;-70
2021/03/16 01:37:46;;;;;;;2.08;1.88;;;;;;;0.90;96.79;93356.97;5121730;27;20039;-70
2021/03/16 01:40:14;;;;;;;2.72;1.90;;;;;;;0.98;97.25;93370.53;5121413;27;20132;-69
2021/03/16 01:42:42;;;;;;;3.90;2.33;;;;;;;0.86;97.74;93363.47;5123408;27;20063;-69
2021/03/16 01:45:14;;;;;;;2.38;1.73;;;;;;;0.86;98.17;93355.78;5113846;27;20067;-70
2021/03/16 01:47:44;;;;;;;3.30;1.92;;;;;;;0.87;98.45;93352.25;5121157;27;20031;-69
2021/03/16 01:50:12;;;;;;;3.30;2.30;;;;;;;0.80;98.99;93351.50;5122048;27;20055;-69
2021/03/16 01:52:39;;;;;;;2.35;1.50;;;;;;;0.77;99.28;93359.59;5124624;27;20131;-69
2021/03/16 01:55:07;;;;;;;2.67;1.60;;;;;;;0.71;99.62;93337.38;5117547;27;20502;-70
2021/03/16 01:57:36;;;;;;;2.88;2.05;;;;;;;0.71;99.75;93357.88;5111254;27;20085;-69
2021/03/16 02:00:22;;;;;;;4.00;2.42;;;;;;;0.78;100.00;93348.38;5106442;27;20075;-70
2021/03/16 02:03:11;;;;;;;2.47;1.88;;;;;;;0.79;99.88;93354.28;5106060;27;20160;-70
2021/03/16 02:05:56;;;;;;;2.17;1.42;;;;;;;0.67;99.83;93349.03;5107269;27;20058;-70
2021/03/16 02:08:49;;;;;;;1.58;1.35;;;;;;;0.71;99.90;93358.66;5106769;27;20626;-70
2021/03/16 02:11:45;;;;;;;2.53;1.90;;;;;;;0.72;99.93;93355.09;5111130;27;20060;-70
2021/03/16 02:14:38;;;;;;;3.83;2.35;;;;;;;0.70;100.00;93353.72;5106388;27;20050;-70
2021/03/16 02:17:29;;;;;;;2.60;1.63;;;;;;;0.70;100.00;93356.28;5108265;27;20093;-72
2021/03/16 02:20:25;;;;;;;3.30;2.50;;;;;;;0.76;100.00;93350.34;5108211;27;20400;-72
2021/03/16 02:23:17;;;;;;;3.72;1.90;;;;;;;0.62;100.00;93343.72;5106286;27;20805;-72
2021/03/16 02:26:15;;;;;;;4.80;1.80;;;;;;;0.73;100.00;93361.78;5105336;27;20557;-71
2021/03/16 02:29:08;;;;;;;2.65;1.83;;;;;;;0.73;100.00;93350.75;5107298;27;20051;-71
2021/03/16 02:32:05;;;;;;;3.40;1.80;;;;;;;0.63;100.00;93355.53;5108593;27;20436;-72
2021/03/16 02:35:02;;;;;;;5.10;1.80;;;;;;;0.68;100.00;93358.28;5106967;27;20278;-72
2021/03/16 02:37:49;;;;;;;3.28;1.83;;;;;;;0.68;100.00;93353.91;5107110;27;20050;-72
2021/03/16 02:40:36;;;;;;;3.17;1.92;;;;;;;0.55;100.00;93344.53;5106982;27;20543;-71
2021/03/16 02:43:22;;;;;;;2.58;1.92;;;;;;;0.63;100.00;93360.66;5107508;27;20058;-72
2021/03/16 02:46:08;;;;;;;2.40;1.70;;;;;;;0.65;100.00;93351.78;5100407;27;20090;-72
2021/03/16 02:48:55;;;;;;;4.50;2.20;;;;;;;0.51;100.00;93333.13;5106808;28;20059;-72
2021/03/16 02:51:41;;;;;;;2.70;1.38;;;;;;;0.70;100.00;93351.97;5107083;27;20055;-72
2021/03/16 02:54:26;;;;;;;5.15;1.40;;;;;;;0.74;100.00;93352.34;5106543;27;20124;-73
2021/03/16 02:57:27;;;;;;;1.40;1.15;;;;;;;0.66;100.00;93337.19;5106671;27;20104;-72
2021/03/16 03:00:12;;;;;;;2.00;1.50;;;;;;;0.77;100.00;93351.91;5104523;27;20811;-72
2021/03/16 03:03:00;;;;;;;2.63;1.70;;;;;;;0.79;100.00;93364.53;5108130;27;20062;-71
2021/03/16 03:05:46;;;;;;;1.60;1.10;;;;;;;0.80;99.90;93361.75;5108236;27;20528;-72
2021/03/16 03:08:34;;;;;;;1.77;0.80;;;;;;;0.75;100.00;93359.03;5104547;27;20416;-71
2021/03/16 03:11:18;;;;;;;1.42;0.95;;;;;;;0.79;100.00;93364.53;5103727;27;20058;-71
2021/03/16 03:14:04;;;;;;;;;;;;;;;0.84;99.79;93365.47;5105822;27;20051;-72
2021/03/16 03:16:49;;;;;;;1.33;1.05;;;;;;;0.78;100.00;93363.75;5105350;27;19927;-72
2021/03/16 03:19:34;;;;;;;;;;;;;;;0.79;100.00;93364.53;5107210;27;20055;-71
2021/03/16 03:22:28;;;;;;;1.15;0.52;;;;;;;0.67;100.00;93366.97;5103839;27;20061;-72
2021/03/16 03:25:21;;;;;;;1.42;0.98;;;;;;;0.66;100.00;93365.38;5104728;27;20560;-72
2021/03/16 03:28:15;;;;;;;1.35;0.90;;;;;;;0.65;100.00;93363.78;5103774;27;20561;-71
2021/03/16 03:31:00;;;;;;;0.73;0.63;;;;;;;0.59;100.00;93354.38;5106469;27;20062;-72
2021/03/16 03:33:47;;;;;;;0.85;0.70;;;;;;;0.54;100.00;93376.28;5105495;27;20058;-72
2021/03/16 03:36:36;;;;;;;1.40;1.00;;;;;;;0.48;100.00;93369.41;5106579;27;20049;-71
2021/03/16 03:39:23;;;;;;;1.60;1.17;;;;;;;0.42;100.00;93380.47;5105434;28;20062;-72
2021/03/16 03:42:09;;;;;;;1.30;1.17;;;;;;;0.39;100.00;93373.19;5105213;27;20050;-72
2021/03/16 03:44:58;;;;;;;1.15;0.85;;;;;;;0.34;100.00;93383.25;5099266;27;20047;-72
2021/03/16 03:47:44;;;;;;;1.90;1.10;;;;;;;0.18;100.00;93371.69;5096724;27;20183;-72
2021/03/16 03:50:31;;;;;;;2.88;1.23;;;;;;;0.22;100.00;93384.88;5103833;27;20577;-72
2021/03/16 03:53:17;;;;;;;2.25;1.20;;;;;;;0.18;100.00;93385.28;5087000;27;20543;-72
2021/03/16 03:56:03;;;;;;;1.35;0.95;;;;;;;0.13;100.00;93380.00;5106825;27;20054;-72
2021/03/16 03:58:49;;;;;;;1.80;1.10;;;;;;;0.16;100.00;93387.28;5102401;28;20181;-72
2021/03/16 04:01:35;;;;;;;1.20;0.90;;;;;;;0.16;100.00;93392.41;5102584;28;20058;-72
2021/03/16 04:04:20;;;;;;;2.05;1.40;;;;;;;0.14;100.00;93393.56;5105188;27;20063;-73
2021/03/16 04:07:07;;;;;;;4.90;1.52;;;;;;;0.17;100.00;93396.50;5105200;27;20055;-72
2021/03/16 04:09:55;;;;;;;3.60;1.42;;;;;;;0.17;100.00;93399.06;5103979;28;20050;-73
2021/03/16 04:12:40;;;;;;;2.30;1.38;;;;;;;0.15;100.00;93401.06;5105719;27;20050;-72
2021/03/16 04:15:26;;;;;;;2.83;1.42;;;;;;;0.11;100.00;93394.78;5104008;27;20035;-73
2021/03/16 04:18:12;;;;;;;4.80;2.05;;;;;;;0.12;100.00;93396.31;5103673;27;20478;-74
2021/03/16 04:20:58;;;;;;;3.38;1.77;;;;;;;0.05;100.00;93390.44;5105706;27;20066;-73
2021/03/16 04:23:43;;;;;;;;;;;;;;;0.05;100.00;93416.03;5105877;28;20560;-73
2021/03/16 04:26:28;;;;;;;;;;;;;;;0.04;100.00;93399.13;5106432;27;20091;-72
2021/03/16 04:29:13;;;;;;;2.10;1.33;;;;;;;-0.01;100.00;93396.38;5104335;27;20391;-73
2021/03/16 04:31:57;;;;;;;;;;;;;;;-0.24;100.00;93361.75;5102499;27;20204;-72
2021/03/16 04:34:43;;;;;;;2.60;1.27;;;;;;;-0.07;100.00;93394.63;5089279;28;19993;-72
2021/03/16 04:37:28;;;;;;;7.45;1.55;;;;;;;-0.01;100.00;93401.50;5090027;28;20088;-73
2021/03/16 04:40:14;;;;;;;3.10;1.52;;;;;;;0.06;100.00;93422.75;5106125;28;20047;-72
2021/03/16 04:42:58;;;;;;;2.50;1.52;;;;;;;0.08;100.00;93436.13;5106350;28;20062;-73
2021/03/16 04:45:43;;;;;;;2.45;1.63;;;;;;;-0.09;100.00;93417.84;5105115;28;20515;-73
2021/03/16 04:48:28;;;;;;;;;;;;;;;-0.04;100.00;93417.25;5102992;28;20092;-70
2021/03/16 04:51:13;;;;;;;3.55;2.05;;;;;;;-0.05;100.00;93405.44;5108475;28;19974;-71
2021/03/16 04:53:57;;;;;;;;;;;;;;;-0.06;100.00;93408.97;5090865;28;20054;-71
2021/03/16 04:56:43;;;;;;;4.75;2.00;;;;;;;-0.05;100.00;93413.13;5106632;28;19926;-72
2021/03/16 04:59:28;;;;;;;;;;;;;;;-0.07;100.00;93407.41;5110201;28;20527;-72
2021/03/16 05:02:14;;;;;;;5.55;2.80;;;;;;;-0.21;100.00;93397.19;5107285;27;19926;-72
2021/03/16 05:04:59;;;;;;;3.35;1.92;;;;;;;-0.15;100.00;93405.06;5107163;28;20523;-71
2021/03/16 05:07:44;;;;;;;5.32;2.70;;;;;;;-0.04;100.00;93412.13;5104835;28;20075;-73
2021/03/16 05:10:29;;;;;;;6.13;3.08;;;;;;;-0.06;100.00;93414.09;5104578;28;20188;-73
2021/03/16 05:13:14;;;;;;;9.32;4.55;;;;;;;-0.09;100.00;93414.50;5103918;28;20557;-73
2021/03/16 05:16:00;;;;;;;;;;;;;;;-0.08;100.00;93416.06;5090962;28;22342;-73
2021/03/16 05:18:47;;;;;;;5.78;3.22;;;;;;;-0.11;100.00;93417.28;5106226;28;19934;-73
2021/03/16 05:21:32;;;;;;;8.73;3.83;;;;;;;-0.15;100.00;93420.41;5105499;28;20042;-73
2021/03/16 05:24:17;;;;;;;6.28;4.47;;;;;;;-0.15;100.00;93413.50;5104412;28;20122;-73
2021/03/16 05:27:03;;;;;;;7.05;4.07;;;;;;;-0.21;100.00;93404.88;5104631;27;20112;-73
2021/03/16 05:29:48;;;;;;;6.00;3.47;;;;;;;-0.17;100.00;93417.28;5105830;28;20067;-74
2021/03/16 05:32:33;;;;;;;;;;;;;;;-0.07;100.00;93428.69;5108216;27;20524;-74
2021/03/16 05:35:19;;;;;;;;;;;;;;;-0.07;100.00;93427.91;5096730;27;20052;-74
2021/03/16 05:38:04;;;;;;;4.60;1.98;;;;;;;-0.07;100.00;93427.91;5109192;27;19927;-74
2021/03/16 05:40:49;;;;;;;5.55;3.08;;;;;;;-0.08;100.00;93431.44;5109724;27;20537;-74
2021/03/16 05:43:35;;;;;;;7.68;4.03;;;;;;;-0.15;100.00;93425.53;5109089;27;20059;-73
2021/03/16 05:46:21;;;;;;;18.08;7.78;;;;;;;-0.08;100.00;93432.22;5101710;27;20055;-74
2021/03/16 05:49:07;;;;;;;13.40;6.60;;;;;;;-0.10;100.00;93433.41;5107467;27;20058;-73
2021/03/16 05:51:52;;;;;;;13.95;4.32;;;;;;;-0.09;100.00;93438.34;5109369;27;20058;-74
2021/03/16 05:54:37;;;;;;;9.07;3.03;;;;;;;-0.10;100.00;93438.53;5108847;27;20152;-74
2021/03/16 05:57:23;;;;;;;9.65;4.72;;;;;;;-0.07;100.00;93438.13;5108061;27;20066;-74
2021/03/16 06:00:09;;;;;;;11.75;4.85;;;;;;;-0.06;100.00;93447.38;5105857;27;20058;-74
2021/03/16 06:02:54;;;;;;;7.18;3.42;;;;;;;-0.14;100.00;93433.00;5108469;27;20059;-75
2021/03/16 06:05:39;;;;;;;5.03;3.20;;;;;;;-0.03;100.00;93457.22;5109628;27;20054;-74
2021/03/16 06:08:23;;;;;;;;;;;;;;;-0.01;100.00;93445.78;5110482;27;20147;-74
2021/03/16 06:11:10;;;;;;;7.97;3.33;;;;;;;-0.12;100.00;93443.06;5110073;27;20444;-75
2021/03/16 06:13:56;;;;;;;12.73;5.55;;;;;;;-0.02;100.00;93451.09;5108405;27;20480;-75
2021/03/16 06:16:41;;;;;;;7.72;3.58;;;;;;;0.01;100.00;93460.94;5109818;27;20051;-73
2021/03/16 06:19:31;;;;;;;10.05;4.60;;;;;;;0.02;100.00;93459.16;5110794;27;20054;-72
2021/03/16 06:22:18;;;;;;;11.05;4.72;;;;;;;0.07;100.00;93465.25;5113899;27;20120;-71
2021/03/16 06:25:05;;;;;;;10.75;5.72;;;;;;;0.09;100.00;93458.19;5113595;27;20132;-71
2021/03/16 06:28:02;;;;;;;12.65;5.00;;;;;;;-0.01;100.00;93452.69;5111343;27;20100;-71
2021/03/16 06:30:50;;;;;;;9.15;5.18;;;;;;;-0.01;100.00;93456.03;5109866;28;20058;-71
2021/03/16 06:33:36;;;;;;;9.07;5.15;;;;;;;0.07;100.00;93467.81;5108574;27;20053;-72
2021/03/16 06:36:26;;;;;;;6.10;3.17;;;;;;;0.11;100.00;93481.81;5109271;27;20507;-72
2021/03/16 06:39:19;;;;;;;6.10;2.90;;;;;;;0.15;100.00;93488.09;5109647;28;20062;-72
2021/03/16 06:42:04;;;;;;;8.68;5.60;;;;;;;0.21;100.00;93485.75;5108403;28;20051;-73
2021/03/16 06:45:16;;;;;;;10.15;6.38;;;;;;;0.27;100.00;93485.75;5111341;27;20519;-72
2021/03/16 06:48:21;;;;;;;11.85;4.53;;;;;;;0.26;100.00;93483.38;5111500;27;20099;-72
2021/03/16 06:51:12;;;;;;;6.78;4.15;;;;;;;0.26;100.00;93488.50;5094622;28;20055;-73
2021/03/16 06:54:13;;;;;;;11.13;7.55;;;;;;;0.32;100.00;93490.25;5110819;28;20200;-73
2021/03/16 06:57:00;;;;;;;9.93;5.60;;;;;;;0.26;100.00;93485.94;5111820;27;20055;-73
2021/03/16 06:59:45;;;;;;;6.93;4.72;;;;;;;0.24;100.00;93464.84;5113949;27;20823;-73
2021/03/16 07:02:30;;;;;;;7.85;4.65;;;;;;;0.35;100.00;93487.28;5111218;27;20054;-73
2021/03/16 07:05:29;;;;;;;7.07;4.50;;;;;;;0.43;100.00;93507.53;5111794;27;20132;-74
2021/03/16 07:08:14;;;;;;;6.63;3.42;;;;;;;0.46;100.00;93503.81;5109614;28;20046;-74
2021/03/16 07:11:05;;;;;;;7.18;3.83;;;;;;;0.51;100.00;93501.44;5108839;28;20101;-74
2021/03/16 07:13:51;;;;;;;20.00;7.22;;;;;;;0.59;100.00;93510.69;5107790;27;20268;-75
2021/03/16 07:16:36;;;;;;;7.13;4.75;;;;;;;0.47;100.00;93511.31;5111983;27;20731;-75
2021/03/16 07:19:23;;;;;;;5.68;4.72;;;;;;;0.53;100.00;93495.13;5110810;27;20435;-75
2021/03/16 07:22:16;;;;;;;7.05;4.72;;;;;;;0.72;100.00;93498.63;5111008;28;20059;-76
2021/03/16 07:25:05;;;;;;;9.25;5.75;;;;;;;0.70;100.00;93507.47;5111803;27;20244;-76
2021/03/16 07:27:51;;;;;;;13.88;7.32;;;;;;;0.79;100.00;93505.47;5094018;28;20055;-76
2021/03/16 07:30:50;;;;;;;9.13;5.78;;;;;;;0.71;100.00;93501.38;5109735;27;20196;-76
2021/03/16 07:33:36;;;;;;;9.85;6.20;;;;;;;0.77;100.00;93500.56;5109427;27;20051;-76
2021/03/16 07:36:21;;;;;;;10.40;6.85;;;;;;;0.76;100.00;93509.25;5110449;27;20039;-77
2021/03/16 07:39:08;;;;;;;8.48;5.90;;;;;;;0.80;100.00;93536.03;5110988;27;20049;-76
2021/03/16 07:41:54;;;;;;;8.98;7.32;;;;;;;0.75;100.00;93528.16;5108720;28;20420;-76
2021/03/16 07:44:43;;;;;;;15.18;9.07;;;;;;;0.74;100.00;93521.47;5108191;27;20055;-76
2021/03/16 07:47:38;;;;;;;10.23;7.65;;;;;;;0.70;100.00;93525.41;5110851;27;20428;-75
2021/03/16 07:50:31;;;;;;;13.52;8.80;;;;;;;0.70;100.00;93525.41;5113102;27;20710;-82
2021/03/16 07:53:26;;;;;;;12.32;9.00;;;;;;;0.69;100.00;93518.75;5110989;27;20055;-81
2021/03/16 07:56:15;;;;;;;12.93;8.20;;;;;;;0.82;100.00;93534.06;5110710;27;20051;-78
2021/03/16 07:59:04;;;;;;;11.00;8.05;;;;;;;0.86;99.78;93540.34;5111152;27;20248;-80
2021/03/16 08:01:49;;;;;;;14.02;10.07;;;;;;;0.86;100.00;93531.88;5111923;27;20054;-77
2021/03/16 08:04:34;;;;;;;14.30;10.13;;;;;;;0.87;98.60;93539.38;5112164;27;20054;-81
2021/03/16 08:07:21;;;;;;;14.32;8.88;;;;;;;0.91;98.58;93545.66;5109269;28;20610;-79
2021/03/16 08:10:07;;;;;;;18.13;10.30;;;;;;;0.98;98.79;93526.91;5112364;27;20066;-79
2021/03/16 08:13:03;;;;;;;14.40;9.27;;;;;;;0.94;97.83;93547.81;5110405;27;20411;-78
2021/03/16 08:15:49;;;;;;;11.25;8.80;;;;;;;0.95;96.93;93564.81;5106810;28;20051;-77
2021/03/16 08:18:35;;;;;;;12.82;8.48;;;;;;;0.93;96.95;93543.69;5107281;28;20818;-76
2021/03/16 08:21:20;;;;;;;;;;;;;;;1.00;96.17;93553.16;5108349;28;20151;-75
2021/03/16 08:24:14;;;;;;;12.07;8.68;;;;;;;0.93;96.51;93564.19;5090206;28;19931;-74
2021/03/16 08:26:58;;;;;;;15.20;11.02;;;;;;;1.06;96.81;93544.63;5105697;28;20074;-73
2021/03/16 08:29:45;;;;;;;11.43;8.95;;;;;;;1.12;96.28;93564.34;5109744;27;20558;-75
2021/03/16 08:32:30;;;;;;;11.07;8.02;;;;;;;1.17;96.48;93556.84;5107822;27;20157;-75
2021/03/16 08:35:19;;;;;;;14.05;8.13;;;;;;;1.16;95.48;93560.38;5106367;28;20046;-74
2021/03/16 08:38:04;;;;;;;13.75;8.55;;;;;;;1.13;95.39;93571.03;5106377;28;20051;-73
2021/03/16 08:41:02;;;;;;;12.68;7.82;;;;;;;1.14;95.57;93552.88;5105627;28;20047;-73
2021/03/16 08:43:49;;;;;;;13.30;9.75;;;;;;;1.21;96.27;93541.81;5105616;28;20067;-73
2021/03/16 08:46:35;;;;;;;12.50;9.63;;;;;;;1.26;96.32;93545.34;5103903;28;20111;-73
2021/03/16 08:49:24;;;;;;;11.75;8.30;;;;;;;1.28;94.76;93579.28;5106498;28;20167;-73
2021/03/16 08:52:29;;;;;;;14.23;9.35;;;;;;;1.31;95.12;93566.03;5105239;28;20061;-72
2021/03/16 08:55:29;;;;;;;15.43;9.88;;;;;;;1.31;94.59;93553.22;5105697;28;20050;-73
2021/03/16 08:58:15;;;;;;;11.88;8.15;;;;;;;1.28;94.31;93553.63;5104962;28;20557;-73
2021/03/16 09:00:59;;;;;;;15.65;10.45;;;;;;;1.23;95.84;93566.25;5106110;28;20046;-73
2021/03/16 09:03:45;;;;;;;17.75;9.73;;;;;;;1.21;94.96;93547.72;5105569;28;20063;-73
2021/03/16 09:06:30;;;;;;;10.48;7.65;;;;;;;1.23;94.49;93553.44;5107276;27;20038;-73
2021/03/16 09:09:23;;;;;;;14.50;10.02;;;;;;;1.16;95.53;93550.13;5109527;28;20101;-73
2021/03/16 09:12:09;;;;;;;14.27;8.82;;;;;;;1.10;95.09;93543.25;5108987;28;20046;-75
2021/03/16 09:14:54;;;;;;;11.00;7.78;;;;;;;1.12;94.77;93541.25;5111918;27;20051;-75
2021/03/16 09:17:42;;;;;;;14.55;10.15;;;;;;;1.05;95.43;93556.66;5110156;28;20050;-74
2021/03/16 09:20:32;;;;;;;15.27;9.93;;;;;;;1.17;96.65;93561.16;5109007;28;20144;-74
2021/03/16 09:23:18;;;;;;;16.05;9.63;;;;;;;1.19;95.47;93559.97;5109066;28;20059;-73
2021/03/16 09:26:03;;;;;;;16.92;11.68;;;;;;;1.13;94.38;93565.91;5109566;28;20424;-73
2021/03/16 09:28:50;;;;;;;21.23;10.85;;;;;;;1.07;95.07;93556.47;5109698;27;20193;-71
2021/03/16 09:31:36;;;;;;;20.35;12.82;;;;;;;1.23;95.79;93566.25;5108253;28;20115;-72
2021/03/16 09:34:21;;;;;;;23.13;11.07;;;;;;;1.25;94.29;93569.41;5109372;27;20050;-72
2021/03/16 09:37:09;;;;;;;14.32;10.10;;;;;;;1.25;93.41;93569.41;5107713;28;20051;-72
2021/03/16 09:40:00;;;;;;;19.75;12.05;;;;;;;1.29;94.31;93570.56;5107763;28;20047;-73
2021/03/16 09:42:44;;;;;;;17.10;9.70;;;;;;;1.26;93.88;93576.13;5092486;28;20044;-73
2021/03/16 09:45:20;;;;;;;12.10;8.20;;;;;;;1.34;90.89;93614.34;5088195;28;20439;-72
2021/03/16 09:47:47;;;;;;;13.80;9.98;;;;;;;1.30;91.42;93582.41;5106578;28;20040;-73
2021/03/16 09:50:39;;;;;;;14.77;9.23;;;;;;;1.28;90.94;93584.41;5107413;28;20039;-72
2021/03/16 09:53:06;;;;;;;12.32;7.97;;;;;;;1.32;90.93;93575.28;5110106;27;20035;-72
2021/03/16 09:55:34;;;;;;;14.75;6.97;;;;;;;1.34;91.14;93614.34;5109391;28;20036;-71
2021/03/16 09:58:02;;;;;;;11.27;7.45;;;;;;;1.21;90.47;93593.91;5110353;27;20050;-71
2021/03/16 10:00:29;;;;;;;15.13;10.48;;;;;;;1.35;92.16;93610.00;5108356;27;20535;-71
2021/03/16 10:03:07;;;;;;;13.82;9.32;;;;;;;1.36;92.13;93613.38;5107855;28;20482;-70
2021/03/16 10:05:34;;;;;;;17.58;11.05;;;;;;;1.40;91.87;93601.72;5108116;28;20036;-71
2021/03/16 10:08:01;;;;;;;13.80;8.73;;;;;;;1.42;90.80;93625.38;5108750;28;20100;-71
2021/03/16 10:10:33;;;;;;;13.57;8.02;;;;;;;1.34;90.11;93634.88;5108118;28;20130;-70
2021/03/16 10:13:02;;;;;;;12.60;8.50;;;;;;;1.36;91.38;93621.06;5107312;28;20538;-70
2021/03/16 10:15:36;;;;;;;10.50;7.60;;;;;;;1.34;90.03;93624.63;5108199;28;20515;-70
2021/03/16 10:18:06;;;;;;;13.37;9.17;;;;;;;1.32;90.32;93642.00;5107178;28;20123;-70
2021/03/16 10:20:38;;;;;;;14.85;7.60;;;;;;;1.32;91.18;93621.47;5109929;27;20055;-69
2021/03/16 10:23:31;;;;;;;11.90;8.60;;;;;;;1.38;90.70;93625.00;5108661;27;20046;-70
2021/03/16 10:26:02;;;;;;;17.55;8.38;;;;;;;1.43;90.74;93621.84;5103655;27;20054;-70
2021/03/16 10:28:32;;;;;;;10.18;7.82;;;;;;;1.40;90.47;93617.09;5108046;28;20040;-70
2021/03/16 10:31:10;;;;;;;14.75;8.50;;;;;;;1.40;91.23;93624.81;5107492;28;20058;-70
2021/03/16 10:33:37;;;;;;;12.00;8.48;;;;;;;1.30;90.02;93622.69;5106826;28;20066;-69
2021/03/16 10:36:06;;;;;;;20.98;10.38;;;;;;;1.31;91.15;93639.63;5108116;27;20527;-70
2021/03/16 10:38:33;;;;;;;15.40;8.98;;;;;;;1.28;89.13;93630.56;5107871;27;20043;-68
2021/03/16 10:40:59;;;;;;;14.10;7.82;;;;;;;1.21;90.39;93624.69;5107810;28;20048;-69
2021/03/16 10:43:27;;;;;;;13.43;8.73;;;;;;;1.21;90.77;93619.53;5106262;27;20404;-69
2021/03/16 10:45:54;;;;;;;11.52;8.02;;;;;;;1.26;89.19;93647.94;5088268;28;20042;-69
2021/03/16 10:48:23;;;;;;;17.52;11.15;;;;;;;1.20;90.05;93632.56;5107922;27;20043;-69
2021/03/16 10:50:50;;;;;;;13.10;9.48;;;;;;;1.26;91.08;93636.88;5107793;28;20123;-68
2021/03/16 10:53:17;;;;;;;17.60;10.57;;;;;;;1.34;91.80;93632.31;5106941;28;20047;-68
2021/03/16 10:55:50;;;;;;;15.43;10.45;;;;;;;1.37;91.40;93643.16;5090370;28;20097;-68
2021/03/16 10:58:16;;;;;;;16.15;10.57;;;;;;;1.41;90.40;93649.47;5107403;28;20559;-68
2021/03/16 11:00:42;;;;;;;15.00;9.55;;;;;;;1.33;89.96;93642.78;5107247;27;20444;-68
2021/03/16 11:03:09;;;;;;;15.95;10.50;;;;;;;1.34;90.60;93650.28;5106242;27;20054;-68
2021/03/16 11:05:37;;;;;;;14.63;8.80;;;;;;;1.28;90.59;93640.84;5105476;28;20101;-68
2021/03/16 11:08:04;;;;;;;10.32;8.18;;;;;;;1.27;91.02;93628.97;5106950;27;20050;-68
2021/03/16 11:10:30;;;;;;;17.70;10.57;;;;;;;1.29;90.38;93652.66;5107419;28;20093;-68
2021/03/16 11:12:57;;;;;;;16.23;10.35;;;;;;;1.37;91.25;93645.72;5107160;28;20097;-68
2021/03/16 11:15:23;;;;;;;11.45;8.20;;;;;;;1.34;90.47;93632.31;5107212;28;20420;-68
2021/03/16 11:17:50;;;;;;;13.15;9.65;;;;;;;1.32;91.07;93631.72;5107386;28;20100;-68
2021/03/16 11:20:17;;;;;;;15.52;10.70;;;;;;;1.40;90.49;93647.91;5106860;27;20092;-67
2021/03/16 11:22:43;;;;;;;16.70;9.93;;;;;;;1.34;90.10;93639.22;5106901;28;20055;-67
2021/03/16 11:25:11;;;;;;;14.73;10.18;;;;;;;1.30;89.82;93628.59;5106369;28;20040;-68
2021/03/16 11:27:37;;;;;;;14.23;8.80;;;;;;;1.30;90.38;93633.72;5106493;28;20047;-68
2021/03/16 11:30:06;;;;;;;16.73;10.93;;;;;;;1.21;91.07;93634.94;5107269;27;20039;-68
2021/03/16 11:32:34;;;;;;;15.00;10.98;;;;;;;1.30;91.56;93641.41;5105984;28;20051;-68
2021/03/16 11:35:19;;;;;;;16.08;10.95;;;;;;;1.24;91.66;93626.84;5106160;28;20059;-68
2021/03/16 11:38:04;;;;;;;;;;;;;;;1.28;91.46;93640.84;5107302;27;20135;-68
2021/03/16 11:40:49;;;;;;;13.98;9.35;;;;;;;1.25;91.25;93646.38;5103152;27;20312;-67
2021/03/16 11:43:34;;;;;;;15.93;10.18;;;;;;;1.12;92.26;93631.03;5105589;27;20123;-69
2021/03/16 11:46:20;;;;;;;16.92;10.38;;;;;;;1.21;91.95;93634.16;5102747;27;20050;-69
2021/03/16 11:49:05;;;;;;;15.02;10.30;;;;;;;1.20;91.86;93648.75;5105038;27;20054;-69
2021/03/16 11:51:50;;;;;;;15.02;10.52;;;;;;;1.19;93.31;93652.31;5105676;27;20131;-70
2021/03/16 11:54:34;;;;;;;15.02;10.57;;;;;;;1.14;94.00;93626.47;5105528;27;20172;-70
2021/03/16 11:57:19;;;;;;;15.18;11.27;;;;;;;1.18;93.42;93648.16;5105036;27;20050;-69
2021/03/16 12:00:05;;;;;;;;;;;;;;;1.26;92.46;93642.81;5106581;27;20046;-69
2021/03/16 12:02:50;;;;;;;21.35;13.15;;;;;;;1.28;92.96;93651.09;5104926;27;19927;-70
2021/03/16 12:05:35;;;;;;;17.67;10.95;;;;;;;1.15;93.43;93630.59;5106698;27;20116;-70
2021/03/16 12:08:23;;;;;;;14.43;10.25;;;;;;;1.29;93.79;93655.22;5101221;27;20078;-70
2021/03/16 12:11:08;;;;;;;17.67;12.38;;;;;;;1.24;94.93;93665.31;5105359;28;20053;-71
2021/03/16 12:13:53;;;;;;;19.80;12.90;;;;;;;1.14;95.32;93629.03;5107784;27;20143;-71
2021/03/16 12:16:38;;;;;;;20.67;10.60;;;;;;;1.12;95.57;93625.91;5104042;28;20046;-72
2021/03/16 12:19:24;;;;;;;17.63;11.15;;;;;;;1.17;95.83;93633.78;5107080;27;20062;-71
2021/03/16 12:22:09;;;;;;;17.67;13.10;;;;;;;1.29;96.45;93642.41;5106267;27;20066;-71
2021/03/16 12:24:54;;;;;;;;;;;;;;;1.37;96.96;93658.56;5105283;28;20059;-71
2021/03/16 12:27:40;;;;;;;16.90;11.70;;;;;;;1.27;96.51;93659.75;5105450;28;20063;-70
2021/03/16 12:30:25;;;;;;;15.82;10.80;;;;;;;1.31;95.26;93645.56;5105263;28;20051;-71
2021/03/16 12:33:10;;;;;;;14.35;10.68;;;;;;;1.33;95.14;93666.69;5104047;28;20585;-71
2021/03/16 12:35:55;;;;;;;19.08;11.20;;;;;;;1.24;96.39;93644.81;5104904;28;20043;-71
2021/03/16 12:38:40;;;;;;;22.25;14.48;;;;;;;1.28;98.12;93645.97;5106015;28;20629;-71
2021/03/16 12:41:25;;;;;;;18.00;11.70;;;;;;;1.29;96.96;93668.03;5105020;28;20047;-71
2021/03/16 12:44:10;;;;;;;20.27;10.85;;;;;;;1.14;97.37;93649.56;5103817;28;20177;-71
2021/03/16 12:46:55;;;;;;;16.35;10.57;;;;;;;1.26;97.55;93655.66;5103566;28;20046;-71
2021/03/16 12:49:41;;;;;;;17.48;12.32;;;;;;;1.25;97.43;93656.63;5104646;28;20131;-71